createdAt,value
2022-08-17T00:00:42.590Z,24.80
2022-08-17T00:03:11.624Z,24.50
2022-08-17T00:05:48.907Z,24.05
2022-08-17T00:08:18.668Z,22.85
2022-08-17T00:10:46.793Z,24.33
2022-08-17T00:13:29.570Z,22.77
2022-08-17T00:16:00.573Z,20.80
2022-08-17T00:19:00.935Z,21.98
2022-08-17T00:21:23.904Z,21.27
2022-08-17T00:23:52.425Z,21.88
2022-08-17T00:26:43.144Z,23.42
2022-08-17T00:29:08.458Z,24.33
2022-08-17T00:31:36.374Z,26.75
2022-08-17T00:34:04.846Z,24.08
2022-08-17T00:36:32.246Z,23.90
2022-08-17T00:38:59.398Z,22.10
2022-08-17T00:41:28.148Z,25.38
2022-08-17T00:44:06.092Z,23.27
2022-08-17T00:46:37.327Z,23.08
2022-08-17T00:49:25.140Z,23.67
2022-08-17T00:52:11.923Z,24.20
2022-08-17T00:54:42.521Z,23.67
2022-08-17T00:57:13.959Z,25.42
2022-08-17T00:59:47.183Z,25.73
2022-08-17T01:02:40.352Z,27.17
2022-08-17T01:05:10.236Z,28.40
2022-08-17T01:07:38.017Z,28.98
2022-08-17T01:10:08.388Z,24.42
2022-08-17T01:12:56.712Z,24.25
2022-08-17T01:15:23.794Z,26.85
2022-08-17T01:17:53.263Z,24.15
2022-08-17T01:20:20.449Z,24.17
2022-08-17T01:22:47.455Z,23.25
2022-08-17T01:25:15.267Z,24.65
2022-08-17T01:28:33.452Z,29.35
2022-08-17T01:33:35.589Z,22.67
2022-08-17T01:36:03.615Z,25.42
2022-08-17T01:38:32.025Z,27.13
2022-08-17T01:41:02.977Z,28.27
2022-08-17T01:43:43.604Z,27.55
2022-08-17T01:46:21.074Z,26.20
2022-08-17T01:49:44.383Z,26.70
2022-08-17T01:52:12.142Z,28.05
2022-08-17T01:54:41.335Z,28.67
2022-08-17T01:57:08.629Z,27.13
2022-08-17T01:59:36.489Z,27.33
2022-08-17T02:02:05.278Z,27.88
2022-08-17T02:04:32.253Z,28.50
2022-08-17T02:06:59.298Z,24.85
2022-08-17T02:09:30.040Z,23.38
2022-08-17T02:11:58.869Z,25.27
2022-08-17T02:14:26.521Z,27.38
2022-08-17T02:16:54.488Z,27.95
2022-08-17T02:19:24.585Z,31.52
2022-08-17T02:21:53.877Z,27.48
2022-08-17T02:24:59.732Z,25.48
2022-08-17T02:27:15.985Z,25.88
2022-08-17T02:29:43.029Z,22.98
2022-08-17T02:32:27.619Z,24.02
2022-08-17T02:34:56.510Z,22.65
2022-08-17T02:37:24.047Z,22.27
2022-08-17T02:39:50.995Z,25.25
2022-08-17T02:42:18.461Z,22.17
2022-08-17T02:44:45.325Z,24.38
2022-08-17T02:47:12.606Z,23.20
2022-08-17T02:50:17.675Z,25.40
2022-08-17T02:52:47.476Z,26.00
2022-08-17T02:55:31.435Z,28.92
2022-08-17T02:57:58.729Z,27.90
2022-08-17T03:00:35.579Z,25.33
2022-08-17T03:03:05.383Z,26.42
2022-08-17T03:05:34.742Z,26.05
2022-08-17T03:08:02.215Z,23.48
2022-08-17T03:10:29.794Z,22.13
2022-08-17T03:12:56.840Z,25.48
2022-08-17T03:15:30.489Z,23.42
2022-08-17T03:17:58.924Z,25.40
2022-08-17T03:20:30.898Z,23.75
2022-08-17T03:23:02.690Z,23.08
2022-08-17T03:25:33.344Z,23.38
2022-08-17T03:28:01.932Z,23.67
2022-08-17T03:30:29.203Z,20.88
2022-08-17T03:33:00.138Z,23.30
2022-08-17T03:35:36.524Z,24.13
2022-08-17T03:38:05.155Z,25.63
2022-08-17T03:40:55.729Z,27.15
2022-08-17T03:43:22.447Z,23.25
2022-08-17T03:46:27.022Z,24.95
2022-08-17T03:49:15.868Z,20.88
2022-08-17T03:52:01.434Z,23.77
2022-08-17T03:54:46.870Z,22.33
2022-08-17T03:57:13.896Z,22.13
2022-08-17T03:59:41.104Z,21.40
2022-08-17T04:02:22.291Z,22.67
2022-08-17T04:04:52.558Z,24.02
2022-08-17T04:07:24.963Z,24.02
2022-08-17T04:09:52.024Z,22.98
2022-08-17T04:12:21.442Z,23.05
2022-08-17T04:14:53.208Z,25.33
2022-08-17T04:17:27.349Z,26.88
2022-08-17T04:19:55.822Z,27.02
2022-08-17T04:22:33.203Z,25.20
2022-08-17T04:25:03.732Z,25.40
2022-08-17T04:27:30.826Z,25.88
2022-08-17T04:29:58.558Z,24.15
2022-08-17T04:33:04.385Z,27.27
2022-08-17T04:35:12.480Z,24.05
2022-08-17T04:37:40.650Z,28.27
2022-08-17T04:40:26.548Z,26.38
2022-08-17T04:43:02.799Z,26.85
2022-08-17T04:45:32.317Z,26.50
2022-08-17T04:48:01.453Z,28.63
2022-08-17T04:50:28.397Z,26.45
2022-08-17T04:52:56.642Z,28.70
2022-08-17T04:55:23.864Z,28.25
2022-08-17T04:57:51.983Z,27.42
2022-08-17T05:00:19.178Z,26.95
2022-08-17T05:02:49.593Z,27.95
2022-08-17T05:05:34.477Z,26.92
2022-08-17T05:08:06.018Z,26.80
2022-08-17T05:10:37.296Z,25.05
2022-08-17T05:13:16.087Z,26.33
2022-08-17T05:15:45.123Z,24.08
2022-08-17T05:18:12.681Z,21.08
2022-08-17T05:20:41.421Z,21.88
2022-08-17T05:23:11.272Z,23.10
2022-08-17T05:25:49.158Z,25.48
2022-08-17T05:28:38.158Z,26.92
2022-08-17T05:31:07.249Z,23.02
2022-08-17T05:33:39.584Z,28.05
2022-08-17T05:36:41.581Z,31.95
2022-08-17T05:39:18.238Z,28.50
2022-08-17T05:41:48.618Z,31.35
2022-08-17T05:44:16.981Z,32.78
2022-08-17T05:46:48.955Z,30.42
2022-08-17T05:49:53.995Z,31.17
2022-08-17T05:52:43.370Z,31.48
2022-08-17T05:55:25.928Z,32.42
2022-08-17T05:58:13.216Z,32.50
2022-08-17T06:01:09.522Z,32.03
2022-08-17T06:03:48.760Z,31.33
2022-08-17T06:06:40.579Z,35.65
2022-08-17T06:09:30.123Z,37.67
2022-08-17T06:12:19.702Z,39.17
2022-08-17T06:15:05.244Z,39.80
2022-08-17T06:17:33.103Z,35.28
2022-08-17T06:20:05.838Z,36.13
2022-08-17T06:22:40.807Z,37.03
2022-08-17T06:27:57.277Z,33.85
2022-08-17T06:30:58.350Z,39.30
2022-08-17T06:33:26.153Z,39.00
2022-08-17T06:36:24.665Z,41.75
2022-08-17T06:39:10.406Z,41.03
2022-08-17T06:41:38.131Z,47.95
2022-08-17T06:44:43.186Z,54.53
2022-08-17T06:47:51.308Z,54.15
2022-08-17T06:50:27.389Z,52.13
2022-08-17T06:53:00.354Z,56.65
2022-08-17T06:55:45.249Z,56.10
2022-08-17T06:58:24.239Z,54.63
2022-08-17T07:01:01.640Z,56.50
2022-08-17T07:03:43.848Z,61.00
2022-08-17T07:06:20.739Z,59.53
2022-08-17T07:08:55.575Z,58.55
2022-08-17T07:12:11.974Z,55.17
2022-08-17T07:14:54.125Z,66.45
2022-08-17T07:17:46.924Z,59.80
2022-08-17T07:20:15.075Z,58.38
2022-08-17T07:23:00.229Z,54.72
2022-08-17T07:25:28.567Z,60.65
2022-08-17T07:28:00.297Z,59.92
2022-08-17T07:30:37.091Z,55.72
2022-08-17T07:33:24.936Z,58.70
2022-08-17T07:35:52.395Z,57.63
2022-08-17T07:38:26.992Z,52.83
2022-08-17T07:40:57.757Z,48.45
2022-08-17T07:43:26.185Z,50.17
2022-08-17T07:46:29.926Z,49.95
2022-08-17T07:49:34.015Z,49.13
2022-08-17T07:54:52.950Z,53.40
2022-08-17T07:57:36.118Z,51.10
2022-08-17T08:00:03.239Z,55.80
2022-08-17T08:02:45.464Z,53.67
2022-08-17T08:08:25.205Z,55.47
2022-08-17T08:11:09.178Z,60.70
2022-08-17T08:13:45.090Z,58.85
2022-08-17T08:16:21.493Z,57.15
2022-08-17T08:18:55.676Z,54.70
2022-08-17T08:21:42.854Z,53.45
2022-08-17T08:24:38.843Z,54.75
2022-08-17T08:27:25.385Z,52.05
2022-08-17T08:30:14.186Z,52.83
2022-08-17T08:32:54.020Z,50.60
2022-08-17T08:35:37.342Z,49.72
2022-08-17T08:38:26.797Z,50.10
2022-08-17T08:41:23.238Z,48.35
2022-08-17T08:44:13.249Z,49.17
2022-08-17T08:47:04.158Z,46.67
2022-08-17T08:50:02.177Z,48.92
2022-08-17T08:52:35.712Z,44.77
2022-08-17T08:55:24.348Z,45.90
2022-08-17T08:58:02.739Z,46.67
2022-08-17T09:00:36.367Z,45.03
2022-08-17T09:03:12.338Z,44.55
2022-08-17T09:05:57.677Z,46.20
2022-08-17T09:08:41.112Z,45.88
2022-08-17T09:13:41.426Z,40.03
2022-08-17T09:16:29.846Z,40.15
2022-08-17T09:19:30.457Z,43.85
2022-08-17T09:22:22.270Z,43.80
2022-08-17T09:24:57.005Z,41.83
2022-08-17T09:27:33.597Z,41.83
2022-08-17T09:30:07.881Z,40.53
2022-08-17T09:33:05.674Z,39.53
2022-08-17T09:35:39.560Z,37.33
2022-08-17T09:38:32.638Z,38.55
2022-08-17T09:41:22.199Z,38.28
2022-08-17T09:44:06.943Z,36.08
2022-08-17T09:46:40.904Z,33.28
2022-08-17T09:49:23.160Z,33.67
2022-08-17T09:52:02.644Z,30.27
2022-08-17T09:54:38.990Z,30.00
2022-08-17T09:57:29.906Z,27.83
2022-08-17T10:00:12.703Z,29.00
2022-08-17T10:02:45.456Z,29.50
2022-08-17T10:05:28.680Z,28.33
2022-08-17T10:10:36.936Z,27.00
2022-08-17T10:13:15.420Z,26.45
2022-08-17T10:16:03.472Z,23.23
2022-08-17T10:18:39.269Z,21.85
2022-08-17T10:21:31.165Z,22.52
2022-08-17T10:24:33.056Z,22.25
2022-08-17T10:27:03.005Z,24.20
2022-08-17T10:29:49.817Z,22.52
2022-08-17T10:32:56.825Z,23.60
2022-08-17T10:35:50.292Z,24.45
2022-08-17T10:38:26.094Z,25.88
2022-08-17T10:41:20.893Z,22.48
2022-08-17T10:44:36.794Z,23.98
2022-08-17T10:46:52.158Z,23.02
2022-08-17T10:49:21.128Z,21.92
2022-08-17T10:52:00.909Z,21.15
2022-08-17T10:54:50.481Z,20.30
2022-08-17T10:57:40.683Z,23.75
2022-08-17T11:00:14.878Z,23.88
2022-08-17T11:02:50.076Z,22.13
2022-08-17T11:05:47.871Z,17.75
2022-08-17T11:08:36.369Z,20.17
2022-08-17T11:11:23.236Z,18.80
2022-08-17T11:14:17.778Z,17.27
2022-08-17T11:17:08.896Z,19.55
2022-08-17T11:20:00.884Z,17.50
2022-08-17T11:22:46.666Z,16.58
2022-08-17T11:25:19.634Z,17.42
2022-08-17T11:27:53.646Z,17.40
2022-08-17T11:30:41.062Z,16.70
2022-08-17T11:33:29.187Z,14.38
2022-08-17T11:36:04.138Z,15.10
2022-08-17T11:39:02.749Z,16.80
2022-08-17T11:42:13.338Z,14.07
2022-08-17T11:44:58.811Z,13.60
2022-08-17T11:48:34.662Z,15.65
2022-08-17T11:51:35.240Z,14.93
2022-08-17T11:54:32.825Z,16.73
2022-08-17T11:57:21.753Z,17.38
2022-08-17T12:00:11.992Z,15.68
2022-08-17T12:02:47.750Z,16.52
2022-08-17T12:05:16.872Z,16.65
2022-08-17T12:08:22.685Z,15.95
2022-08-17T12:11:16.417Z,16.83
2022-08-17T12:14:04.774Z,16.98
2022-08-17T12:16:31.740Z,16.92
2022-08-17T12:19:02.399Z,15.00
2022-08-17T12:21:48.860Z,14.27
2022-08-17T12:24:37.408Z,15.63
2022-08-17T12:27:07.146Z,15.70
2022-08-17T12:29:39.188Z,16.10
2022-08-17T12:32:12.908Z,16.85
2022-08-17T12:34:42.633Z,14.80
2022-08-17T12:37:22.483Z,15.85
2022-08-17T12:40:03.812Z,14.95
2022-08-17T12:42:35.963Z,16.33
2022-08-17T12:45:23.401Z,17.20
2022-08-17T12:48:00.782Z,15.13
2022-08-17T12:50:30.286Z,14.80
2022-08-17T12:53:02.053Z,14.75
2022-08-17T12:55:36.348Z,16.02
2022-08-17T12:58:42.081Z,13.63
2022-08-17T13:01:15.188Z,14.93
2022-08-17T13:03:49.508Z,14.63
2022-08-17T13:06:34.891Z,14.38
2022-08-17T13:09:12.208Z,15.48
2022-08-17T13:11:52.317Z,15.70
2022-08-17T13:14:19.944Z,16.17
2022-08-17T13:17:01.796Z,13.68
2022-08-17T13:19:41.031Z,13.55
2022-08-17T13:22:12.857Z,12.77
2022-08-17T13:24:53.265Z,13.57
2022-08-17T13:27:23.047Z,12.88
2022-08-17T13:29:53.723Z,12.30
2022-08-17T13:32:53.834Z,14.15
2022-08-17T13:35:39.569Z,13.05
2022-08-17T13:38:16.013Z,13.32
2022-08-17T13:40:50.254Z,13.73
2022-08-17T13:43:44.726Z,12.60
2022-08-17T13:46:23.891Z,13.57
2022-08-17T13:49:18.068Z,13.18
2022-08-17T13:51:47.070Z,11.63
2022-08-17T13:54:20.282Z,11.35
2022-08-17T13:56:55.461Z,11.82
2022-08-17T13:59:52.956Z,10.70
2022-08-17T14:02:23.414Z,10.25
2022-08-17T14:04:54.633Z,10.07
2022-08-17T14:07:32.142Z,9.23
2022-08-17T14:10:04.252Z,9.35
2022-08-17T14:12:33.085Z,8.90
2022-08-17T14:15:00.098Z,9.48
2022-08-17T14:17:35.044Z,8.35
2022-08-17T14:20:09.403Z,8.60
2022-08-17T14:22:39.788Z,9.10
2022-08-17T14:25:08.668Z,8.10
2022-08-17T14:27:53.269Z,9.18
2022-08-17T14:30:26.886Z,7.45
2022-08-17T14:32:58.036Z,8.38
2022-08-17T14:35:27.820Z,7.32
2022-08-17T14:37:56.269Z,7.63
2022-08-17T14:40:27.471Z,8.10
2022-08-17T14:42:56.546Z,8.00
2022-08-17T14:45:31.762Z,7.88
2022-08-17T14:48:04.152Z,8.02
2022-08-17T14:50:32.066Z,8.00
2022-08-17T14:53:03.926Z,7.70
2022-08-17T14:55:31.151Z,7.40
2022-08-17T14:57:59.565Z,6.63
2022-08-17T15:00:26.935Z,7.15
2022-08-17T15:02:58.489Z,8.00
2022-08-17T15:05:31.410Z,8.73
2022-08-17T15:10:29.323Z,10.75
2022-08-17T15:12:56.574Z,10.70
2022-08-17T15:15:23.615Z,11.13
2022-08-17T15:17:51.571Z,10.95
2022-08-17T15:20:21.469Z,11.15
2022-08-17T15:22:50.043Z,11.00
2022-08-17T15:25:19.220Z,12.52
2022-08-17T15:27:47.575Z,12.13
2022-08-17T15:30:15.521Z,12.32
2022-08-17T15:32:50.624Z,13.13
2022-08-17T15:35:19.222Z,11.45
2022-08-17T15:38:08.042Z,10.60
2022-08-17T15:40:40.464Z,12.20
2022-08-17T15:43:39.108Z,11.60
2022-08-17T15:46:12.051Z,11.18
2022-08-17T15:51:21.765Z,10.10
2022-08-17T15:53:52.462Z,8.90
2022-08-17T15:56:19.895Z,9.32
2022-08-17T15:58:49.504Z,9.45
2022-08-17T16:02:15.404Z,10.52
2022-08-17T16:04:29.871Z,10.75
2022-08-17T16:06:53.749Z,10.23
2022-08-17T16:09:20.863Z,10.05
2022-08-17T16:11:55.227Z,10.35
2022-08-17T16:14:24.079Z,9.18
2022-08-17T16:16:51.681Z,9.85
2022-08-17T16:19:18.983Z,9.70
2022-08-17T16:21:45.889Z,8.95
2022-08-17T16:24:14.842Z,8.88
2022-08-17T16:26:42.193Z,8.98
2022-08-17T16:29:09.612Z,8.63
2022-08-17T16:31:37.832Z,9.07
2022-08-17T16:34:17.603Z,9.30
2022-08-17T16:36:55.150Z,9.13
2022-08-17T16:39:29.637Z,10.30
2022-08-17T16:41:57.522Z,10.55
2022-08-17T16:44:27.476Z,11.18
2022-08-17T16:46:54.546Z,11.63
2022-08-17T16:49:35.101Z,10.95
2022-08-17T16:52:04.765Z,9.68
2022-08-17T16:54:31.906Z,12.25
2022-08-17T16:56:59.214Z,8.68
2022-08-17T16:59:30.829Z,9.25
2022-08-17T17:04:35.372Z,9.73
2022-08-17T17:07:33.863Z,10.05
2022-08-17T17:10:13.868Z,10.90
2022-08-17T17:13:01.212Z,10.65
2022-08-17T17:15:39.613Z,9.68
2022-08-17T17:18:11.542Z,11.43
2022-08-17T17:20:47.710Z,11.80
2022-08-17T17:23:34.996Z,11.77
2022-08-17T17:26:17.208Z,12.02
2022-08-17T17:29:08.828Z,13.32
2022-08-17T17:31:45.985Z,12.13
2022-08-17T17:34:16.554Z,11.95
2022-08-17T17:36:51.879Z,13.30
2022-08-17T17:39:31.923Z,12.05
2022-08-17T17:42:02.824Z,13.18
2022-08-17T17:44:38.419Z,13.45
2022-08-17T17:47:05.944Z,12.55
2022-08-17T17:49:45.022Z,14.18
2022-08-17T17:52:53.204Z,13.43
2022-08-17T17:55:39.284Z,12.20
2022-08-17T17:58:49.765Z,13.60
2022-08-17T18:01:25.368Z,13.65
2022-08-17T18:04:20.509Z,14.65
2022-08-17T18:07:00.244Z,13.93
2022-08-17T18:09:39.371Z,12.82
2022-08-17T18:12:24.458Z,14.73
2022-08-17T18:15:03.514Z,13.52
2022-08-17T18:17:31.178Z,14.07
2022-08-17T18:19:58.155Z,16.10
2022-08-17T18:22:25.953Z,13.77
2022-08-17T18:24:58.829Z,13.38
2022-08-17T18:27:38.397Z,14.55
2022-08-17T18:30:14.651Z,13.52
2022-08-17T18:32:43.629Z,13.77
2022-08-17T18:35:16.519Z,14.68
2022-08-17T18:37:54.121Z,15.18
2022-08-17T18:40:21.447Z,14.50
2022-08-17T18:43:44.171Z,14.55
2022-08-17T18:46:28.852Z,15.77
2022-08-17T18:49:03.009Z,16.70
2022-08-17T18:51:41.693Z,16.58
2022-08-17T18:54:17.970Z,18.98
2022-08-17T18:56:54.089Z,15.63
2022-08-17T18:59:45.558Z,17.15
2022-08-17T19:02:18.227Z,18.63
2022-08-17T19:05:02.609Z,16.42
2022-08-17T19:07:34.717Z,18.52
2022-08-17T19:10:20.129Z,17.25
2022-08-17T19:13:12.361Z,18.00
2022-08-17T19:15:45.740Z,19.27
2022-08-17T19:18:43.840Z,17.88
2022-08-17T19:21:26.042Z,18.33
2022-08-17T19:24:06.793Z,18.98
2022-08-17T19:26:54.533Z,17.25
2022-08-17T19:29:50.116Z,17.27
2022-08-17T19:32:21.577Z,17.48
2022-08-17T19:34:49.223Z,18.10
2022-08-17T19:37:54.401Z,16.95
2022-08-17T19:40:54.251Z,15.00
2022-08-17T19:43:44.107Z,16.15
2022-08-17T19:46:24.607Z,16.88
2022-08-17T19:49:10.914Z,16.27
2022-08-17T19:51:51.973Z,15.93
2022-08-17T19:54:33.608Z,16.98
2022-08-17T19:57:16.747Z,16.92
2022-08-17T20:00:10.690Z,15.70
2022-08-17T20:02:45.581Z,17.52
2022-08-17T20:05:27.132Z,16.55
2022-08-17T20:08:07.575Z,15.77
2022-08-17T20:10:38.758Z,17.83
2022-08-17T20:13:11.001Z,18.52
2022-08-17T20:15:41.259Z,17.95
2022-08-17T20:18:37.844Z,17.83
2022-08-17T20:21:29.803Z,15.30
2022-08-17T20:24:21.489Z,16.50
2022-08-17T20:26:59.645Z,16.92
2022-08-17T20:29:51.971Z,17.23
2022-08-17T20:32:25.316Z,15.60
2022-08-17T20:35:03.832Z,18.17
2022-08-17T20:37:34.142Z,17.13
2022-08-17T20:40:01.086Z,19.05
2022-08-17T20:42:30.969Z,16.48
2022-08-17T20:45:05.786Z,18.05
2022-08-17T20:47:50.649Z,18.77
2022-08-17T20:50:37.888Z,19.65
2022-08-17T20:53:13.525Z,16.95
2022-08-17T20:55:52.225Z,19.85
2022-08-17T20:58:30.857Z,18.67
2022-08-17T21:00:58.621Z,19.17
2022-08-17T21:03:28.582Z,18.88
2022-08-17T21:06:18.157Z,21.17
2022-08-17T21:08:54.301Z,20.08
2022-08-17T21:12:03.462Z,19.58
2022-08-17T21:14:34.235Z,19.17
2022-08-17T21:17:29.698Z,19.05
2022-08-17T21:20:14.778Z,19.30
2022-08-17T21:23:03.592Z,18.90
2022-08-17T21:25:58.110Z,19.95
2022-08-17T21:29:01.196Z,19.80
2022-08-17T21:31:45.379Z,20.00
2022-08-17T21:34:17.395Z,20.10
2022-08-17T21:36:45.687Z,18.50
2022-08-17T21:39:39.461Z,19.10
2022-08-17T21:42:07.203Z,18.55
2022-08-17T21:44:36.873Z,17.63
2022-08-17T21:47:20.527Z,17.52
2022-08-17T21:49:50.037Z,19.40
2022-08-17T21:52:20.036Z,18.25
2022-08-17T21:54:57.636Z,18.67
2022-08-17T21:57:27.681Z,19.75
2022-08-17T22:00:00.732Z,16.50
2022-08-17T22:02:32.397Z,19.17
2022-08-17T22:05:07.090Z,19.73
2022-08-17T22:07:59.965Z,17.13
2022-08-17T22:10:51.208Z,17.77
2022-08-17T22:13:18.104Z,17.45
2022-08-17T22:16:28.671Z,18.35
2022-08-17T22:19:00.725Z,19.40
2022-08-17T22:21:28.032Z,18.05
2022-08-17T22:24:05.198Z,17.42
2022-08-17T22:26:59.479Z,18.58
2022-08-17T22:29:56.872Z,18.38
2022-08-17T22:32:39.329Z,16.85
2022-08-17T22:35:36.764Z,18.80
2022-08-17T22:38:18.944Z,18.58
2022-08-17T22:40:52.110Z,19.02
2022-08-17T22:43:25.899Z,17.13
2022-08-17T22:45:56.818Z,18.33
2022-08-17T22:48:27.197Z,17.35
2022-08-17T22:51:13.411Z,18.55
2022-08-17T22:54:15.528Z,19.65
2022-08-17T22:57:19.672Z,18.02
2022-08-17T22:59:53.378Z,17.35
2022-08-17T23:02:24.832Z,18.13
2022-08-17T23:04:57.650Z,17.98
2022-08-17T23:07:24.668Z,17.77
2022-08-17T23:09:54.900Z,18.85
2022-08-17T23:12:26.461Z,17.50
2022-08-17T23:15:01.942Z,17.05
2022-08-17T23:17:33.915Z,16.10
2022-08-17T23:20:08.604Z,15.50
2022-08-17T23:22:38.084Z,17.13
2022-08-17T23:25:26.789Z,16.15
2022-08-17T23:28:31.581Z,16.08
2022-08-17T23:30:58.796Z,15.55
2022-08-17T23:33:30.270Z,17.00
2022-08-17T23:36:00.419Z,16.35
2022-08-17T23:38:48.297Z,16.35
2022-08-17T23:41:18.554Z,15.98
2022-08-17T23:43:48.092Z,16.02
2022-08-17T23:46:16.188Z,15.05
2022-08-17T23:48:45.877Z,16.00
2022-08-17T23:51:17.110Z,16.00
2022-08-17T23:53:48.170Z,15.55
2022-08-17T23:56:16.379Z,15.82
2022-08-17T23:58:44.948Z,15.25
